Time;durP1;ratioP1;P1;durP2;ratioP2;P2;SDS_P1;SDS_P2;PMS_P1;PMS_P2;Temp;Humidity;BMP_temperature;BMP_pressure;BME280_temperature;BME280_humidity;BME280_pressure;Samples;Min_cycle;Max_cycle;Signal;HPM_P1;HPM_P2
2023/07/30 00:01:49;;;;;;;;;2.00;2.00;;;;;19.34;65.22;100608.84;5138137;27;45238;-77
2023/07/30 00:04:14;;;;;;;;;3.33;2.33;;;;;19.32;65.02;100613.53;5138027;27;45326;-77
2023/07/30 00:06:39;;;;;;;;;1.00;1.00;;;;;19.36;64.76;100617.66;5138655;27;45495;-76
2023/07/30 00:09:05;;;;;;;;;2.33;1.33;;;;;19.12;64.54;100590.25;5137673;27;46331;-77
2023/07/30 00:11:30;;;;;;;;;1.00;1.00;;;;;19.25;64.88;100617.78;5137989;27;45358;-76
2023/07/30 00:13:55;;;;;;;;;3.00;2.00;;;;;19.25;64.64;100625.03;5137911;27;45518;-77
2023/07/30 00:16:20;;;;;;;;;3.00;1.00;;;;;19.18;64.80;100615.81;5138154;27;45557;-76
2023/07/30 00:18:46;;;;;;;;;1.67;1.67;;;;;19.08;64.47;100615.78;5137671;27;50416;-77
2023/07/30 00:21:11;;;;;;;;;2.67;1.00;;;;;19.17;64.53;100628.44;5138196;27;45467;-78
2023/07/30 00:23:36;;;;;;;;;4.67;2.00;;;;;19.16;64.78;100626.72;5137834;27;45390;-77
2023/07/30 00:26:02;;;;;;;;;1.33;1.33;;;;;19.15;64.72;100625.03;5138112;27;45415;-77
2023/07/30 00:28:27;;;;;;;;;3.00;2.67;;;;;19.18;64.72;100615.81;5137694;27;46117;-77
2023/07/30 00:30:53;;;;;;;;;1.00;1.00;;;;;19.10;64.68;100614.66;5137744;27;45385;-77
2023/07/30 00:33:18;;;;;;;;;3.00;1.67;;;;;18.98;65.11;100612.22;5137755;27;45384;-78
2023/07/30 00:35:43;;;;;;;;;3.33;1.67;;;;;18.72;65.78;100593.88;5138297;27;45266;-77
2023/07/30 00:38:08;;;;;;;;;0.00;0.00;;;;;18.62;65.74;100606.47;5137512;27;46141;-78
2023/07/30 00:40:40;;;;;;;;;1.33;1.33;;;;;18.62;66.57;100611.84;5137757;27;45355;-78
2023/07/30 00:43:05;;;;;;;;;1.33;1.33;;;;;18.57;66.54;100606.84;5137605;27;45484;-76
2023/07/30 00:45:31;;;;;;;;;1.00;1.00;;;;;18.64;66.98;100615.28;5137807;27;45484;-77
2023/07/30 00:47:57;;;;;;;;;1.33;1.00;;;;;18.61;67.11;100607.41;5137468;27;48063;-77
2023/07/30 00:50:22;;;;;;;;;1.67;1.00;;;;;18.72;67.66;100628.91;5137517;27;45339;-78
2023/07/30 00:52:48;;;;;;;;;8.33;4.00;;;;;18.75;67.72;100638.53;5118880;27;45341;-77
2023/07/30 00:55:14;;;;;;;;;2.33;2.33;;;;;18.65;68.05;100622.38;5119546;27;45491;-78
2023/07/30 00:57:41;;;;;;;;;4.00;2.33;;;;;18.73;68.25;100635.97;5137366;27;45487;-78
2023/07/30 01:00:09;;;;;;;;;2.00;0.67;;;;;18.64;68.04;100620.66;5137310;27;45357;-78
2023/07/30 01:02:36;;;;;;;;;1.33;1.33;;;;;18.79;67.94;100651.63;5140138;27;45417;-78
2023/07/30 01:05:03;;;;;;;;;3.67;1.67;;;;;18.65;67.04;100622.38;5122477;27;45350;-78
2023/07/30 01:07:28;;;;;;;;;1.33;1.33;;;;;18.88;66.47;100654.47;5121954;27;46227;-78
2023/07/30 01:09:54;;;;;;;;;1.00;1.00;;;;;18.82;65.64;100645.94;5140637;27;45458;-78
2023/07/30 01:12:20;;;;;;;;;3.33;2.33;;;;;18.82;64.73;100650.47;5141007;27;45306;-78
2023/07/30 01:14:47;;;;;;;;;1.00;1.00;;;;;18.76;64.67;100651.91;5141468;27;45491;-78
2023/07/30 01:17:13;;;;;;;;;2.00;1.00;;;;;18.75;64.88;100665.47;5140847;27;46818;-76
2023/07/30 01:19:39;;;;;;;;;1.00;1.00;;;;;18.76;64.81;100670.75;5140571;27;45285;-78
2023/07/30 01:22:04;;;;;;;;;1.00;1.00;;;;;18.69;64.58;100660.66;5122068;27;45293;-77
2023/07/30 01:24:30;;;;;;;;;1.00;1.00;;;;;18.46;64.57;100641.94;5140978;27;45260;-78
2023/07/30 01:27:01;;;;;;;;;3.33;2.00;;;;;18.63;64.68;100678.19;5140431;27;45970;-77
2023/07/30 01:29:45;;;;;;;;;1.00;1.00;;;;;18.65;64.58;100684.31;5140686;27;45171;-77
2023/07/30 01:32:11;;;;;;;;;2.67;1.00;;;;;18.60;64.42;100680.28;5122020;27;45304;-79
2023/07/30 01:34:40;;;;;;;;;1.00;1.00;;;;;18.64;64.15;100679.06;5140550;27;45205;-78
2023/07/30 01:37:10;;;;;;;;;1.00;1.00;;;;;18.65;64.31;100689.72;5140215;27;46270;-77
2023/07/30 01:39:38;;;;;;;;;2.33;1.67;;;;;18.64;64.02;100690.69;5140392;27;45249;-77
2023/07/30 01:42:04;;;;;;;;;1.00;1.00;;;;;18.58;64.11;100691.19;5140510;27;45399;-77
2023/07/30 01:44:29;;;;;;;;;2.00;1.00;;;;;18.65;63.67;100692.41;5140507;27;45530;-77
2023/07/30 01:46:54;;;;;;;;;0.67;0.67;;;;;18.74;63.76;100702.34;5140154;27;46097;-78
2023/07/30 01:49:20;;;;;;;;;3.00;2.00;;;;;18.67;63.83;100693.13;5140283;27;45282;-79
2023/07/30 01:51:45;;;;;;;;;1.00;1.00;;;;;18.67;63.71;100703.03;5140562;27;45373;-77
2023/07/30 01:54:11;;;;;;;;;1.00;1.00;;;;;18.64;63.75;100706.00;5121813;27;45380;-77
2023/07/30 01:56:36;;;;;;;;;2.00;0.00;;;;;18.64;64.08;100706.88;5140059;27;46325;-77
2023/07/30 01:59:01;;;;;;;;;1.00;1.00;;;;;18.65;64.25;100713.97;5139971;27;45405;-77
2023/07/30 02:01:27;;;;;;;;;2.00;2.00;;;;;18.63;64.68;100721.28;5140155;27;45329;-76
2023/07/30 02:03:52;;;;;;;;;0.67;0.67;;;;;18.39;64.79;100680.34;5139701;27;48045;-76
2023/07/30 02:06:17;;;;;;;;;0.67;0.67;;;;;18.45;65.02;100696.81;5140140;27;46109;-77
2023/07/30 02:08:43;;;;;;;;;1.67;1.00;;;;;18.52;65.28;100721.38;5139296;27;54507;-77
2023/07/30 02:11:08;;;;;;;;;2.00;1.00;;;;;18.36;65.27;100703.00;5121200;27;45313;-75
2023/07/30 02:13:33;;;;;;;;;1.00;1.00;;;;;18.43;65.46;100716.78;5138738;27;45282;-77
2023/07/30 02:15:59;;;;;;;;;3.00;1.00;;;;;18.43;65.63;100724.84;5120940;27;47724;-77
2023/07/30 02:18:24;;;;;;;;;1.00;1.00;;;;;18.47;65.87;100726.28;5139727;27;45459;-77
2023/07/30 02:20:49;;;;;;;;;2.33;1.00;;;;;18.30;65.68;100700.84;5139912;27;45386;-77
2023/07/30 02:23:18;;;;;;;;;1.00;1.00;;;;;18.30;66.11;100705.38;5139740;27;45328;-78
2023/07/30 02:25:43;;;;;;;;;1.00;1.00;;;;;18.43;66.21;100730.25;5120876;27;46171;-77
2023/07/30 02:28:09;;;;;;;;;2.00;1.00;;;;;18.34;66.31;100737.25;5139367;27;45247;-78
2023/07/30 02:30:34;;;;;;;;;2.67;1.00;;;;;18.18;66.50;100720.72;5139683;27;45264;-78
2023/07/30 02:33:00;;;;;;;;;1.00;1.00;;;;;18.24;66.36;100721.06;5139568;27;45350;-77
2023/07/30 02:35:25;;;;;;;;;6.33;2.00;;;;;18.30;66.40;100729.59;5120576;27;46935;-78
2023/07/30 02:37:50;;;;;;;;;1.00;1.00;;;;;18.34;66.13;100729.19;5138974;27;60630;-76
2023/07/30 02:40:16;;;;;;;;;1.67;1.33;;;;;18.39;66.23;100742.28;5139447;27;45477;-77
2023/07/30 02:42:41;;;;;;;;;3.33;1.33;;;;;18.35;66.09;100740.81;5139483;27;45648;-75
2023/07/30 02:45:07;;;;;;;;;2.00;1.00;;;;;18.37;66.18;100746.94;5139053;27;45862;-78
2023/07/30 02:47:32;;;;;;;;;3.00;1.00;;;;;18.39;65.62;100740.44;5139272;27;45753;-76
2023/07/30 02:49:58;;;;;;;;;2.00;2.00;;;;;18.42;66.15;100737.47;5139057;27;45479;-77
2023/07/30 02:52:23;;;;;;;;;0.33;0.33;;;;;18.42;66.00;100742.00;5120796;27;45514;-77
2023/07/30 02:54:48;;;;;;;;;2.00;1.00;;;;;18.25;66.22;100725.47;5139229;27;45504;-76
2023/07/30 02:57:13;;;;;;;;;1.33;1.33;;;;;18.37;66.06;100733.47;5138394;27;61976;-76
2023/07/30 02:59:40;;;;;;;;;2.33;1.00;;;;;18.37;65.98;100731.63;5138979;27;45532;-76
2023/07/30 03:02:06;;;;;;;;;1.67;1.67;;;;;18.28;65.85;100733.28;5120557;27;45573;-76
2023/07/30 03:04:31;;;;;;;;;6.00;2.33;;;;;18.03;66.25;100706.75;5138611;27;45821;-76
2023/07/30 03:06:57;;;;;;;;;3.00;1.33;;;;;18.20;66.72;100741.16;5138786;27;45344;-77
2023/07/30 03:09:22;;;;;;;;;3.00;1.67;;;;;18.09;67.05;100734.97;5138834;27;47457;-78
2023/07/30 03:11:49;;;;;;;;;2.33;1.33;;;;;18.11;66.89;100728.50;5139229;27;45531;-76
2023/07/30 03:14:14;;;;;;;;;8.00;2.67;;;;;18.14;67.26;100749.75;5120356;27;45394;-78
2023/07/30 03:16:40;;;;;;;;;1.00;1.00;;;;;18.09;67.26;100746.59;5138888;27;45292;-77
2023/07/30 03:19:05;;;;;;;;;2.33;1.00;;;;;17.98;67.56;100728.69;5138671;27;45263;-78
2023/07/30 03:21:30;;;;;;;;;3.67;2.67;;;;;18.02;67.34;100742.72;5139004;27;45615;-77
2023/07/30 03:23:56;;;;;;;;;1.00;1.00;;;;;18.00;67.56;100744.69;5137996;27;45545;-77
2023/07/30 03:26:21;;;;;;;;;1.67;1.00;;;;;17.94;67.63;100742.50;5120214;27;45401;-76
2023/07/30 03:28:46;;;;;;;;;1.67;1.67;;;;;17.91;67.73;100735.56;5138783;27;45554;-77
2023/07/30 03:31:12;;;;;;;;;1.33;1.33;;;;;17.86;67.82;100743.16;5120247;27;45583;-77
2023/07/30 03:33:39;;;;;;;;;1.00;1.00;;;;;17.92;67.91;100741.78;5138305;27;45556;-77
2023/07/30 03:36:04;;;;;;;;;2.33;1.00;;;;;17.95;68.21;100749.59;5138322;27;45274;-77
2023/07/30 03:38:30;;;;;;;;;2.00;1.00;;;;;17.98;68.43;100758.28;5138251;27;45328;-76
2023/07/30 03:40:55;;;;;;;;;1.33;1.33;;;;;17.99;68.18;100756.44;5139049;27;45427;-76
2023/07/30 03:43:21;;;;;;;;;1.00;1.00;;;;;17.92;67.93;100748.03;5138583;27;46469;-77
2023/07/30 03:45:46;;;;;;;;;3.00;2.00;;;;;18.04;68.21;100764.97;5138052;27;45265;-77
2023/07/30 03:48:11;;;;;;;;;3.33;1.00;;;;;18.04;68.26;100758.75;5119619;27;45315;-76
2023/07/30 03:50:37;;;;;;;;;2.33;2.33;;;;;17.94;68.22;100747.88;5137911;27;48659;-75
2023/07/30 03:53:02;;;;;;;;;3.00;3.00;;;;;17.94;67.98;100756.81;5119395;27;47491;-76
2023/07/30 03:55:28;;;;;;;;;4.00;2.33;;;;;18.02;68.01;100766.09;5138261;27;45498;-77
2023/07/30 03:57:53;;;;;;;;;2.33;1.00;;;;;17.90;68.61;100752.69;5120041;27;45274;-77
2023/07/30 04:00:19;;;;;;;;;1.00;1.00;;;;;17.90;68.21;100759.91;5138246;27;45544;-77
2023/07/30 04:02:44;;;;;;;;;2.00;2.00;;;;;17.90;68.62;100759.91;5137847;27;46257;-75
2023/07/30 04:05:09;;;;;;;;;3.00;2.00;;;;;17.89;68.69;100768.97;5137813;27;45218;-76
2023/07/30 04:07:35;;;;;;;;;2.33;0.67;;;;;17.84;68.47;100761.28;5137955;27;45424;-75
2023/07/30 04:10:00;;;;;;;;;3.67;1.33;;;;;17.75;68.37;100762.03;5138476;27;45352;-77
2023/07/30 04:12:25;;;;;;;;;2.00;2.00;;;;;17.91;68.22;100783.97;5138118;27;47712;-76
2023/07/30 04:14:51;;;;;;;;;2.33;2.00;;;;;17.92;68.43;100780.31;5137880;27;45331;-75
2023/07/30 04:17:16;;;;;;;;;2.00;1.00;;;;;17.89;68.53;100785.09;5138006;27;45439;-77
2023/07/30 04:19:41;;;;;;;;;4.00;2.00;;;;;17.88;68.22;100784.25;5138202;27;45579;-76
2023/07/30 04:22:07;;;;;;;;;2.33;1.00;;;;;17.84;68.63;100776.53;5137684;27;46090;-77
2023/07/30 04:24:32;;;;;;;;;3.00;1.67;;;;;17.82;67.91;100775.81;5137643;27;45453;-77
2023/07/30 04:26:57;;;;;;;;;1.00;1.00;;;;;17.85;68.92;100789.03;5137488;27;56650;-77
2023/07/30 04:29:23;;;;;;;;;6.67;2.00;;;;;17.74;68.10;100773.78;5138034;27;45596;-77
2023/07/30 04:31:48;;;;;;;;;3.00;2.00;;;;;17.86;68.45;100794.28;5137745;27;45383;-77
2023/07/30 04:34:14;;;;;;;;;1.67;1.67;;;;;17.62;68.52;100762.19;5118895;27;46224;-78
2023/07/30 04:36:40;;;;;;;;;4.33;2.00;;;;;17.83;68.66;100788.28;5139209;27;45313;-76
2023/07/30 04:39:05;;;;;;;;;2.00;2.00;;;;;17.84;68.46;100804.34;5141407;27;45343;-77
2023/07/30 04:41:30;;;;;;;;;2.33;2.33;;;;;17.84;68.74;100798.06;5141125;27;46549;-77
2023/07/30 04:43:56;;;;;;;;;3.33;2.00;;;;;17.83;68.86;100807.13;5140805;27;63604;-76
2023/07/30 04:46:21;;;;;;;;;4.33;2.00;;;;;17.77;68.86;100807.66;5140788;27;56058;-75
2023/07/30 04:48:46;;;;;;;;;4.67;2.00;;;;;17.79;68.62;100814.59;5122740;27;45509;-77
2023/07/30 04:51:12;;;;;;;;;3.00;1.00;;;;;17.82;68.62;100818.88;5140930;27;46683;-77
2023/07/30 04:53:37;;;;;;;;;2.00;2.00;;;;;17.82;68.74;100813.47;5140860;27;45251;-78
2023/07/30 04:56:02;;;;;;;;;2.67;2.33;;;;;17.85;68.96;100821.31;5141181;27;45243;-77
2023/07/30 04:58:28;;;;;;;;;2.67;2.00;;;;;17.87;68.77;100824.75;5141432;27;45179;-76
2023/07/30 05:00:53;;;;;;;;;5.00;3.67;;;;;17.74;68.68;100807.91;5140815;27;45411;-77
2023/07/30 05:03:18;;;;;;;;;2.00;2.00;;;;;17.88;68.97;100847.97;5140354;27;52276;-77
2023/07/30 05:05:44;;;;;;;;;3.67;1.00;;;;;17.87;68.37;100843.56;5122307;27;45231;-78
2023/07/30 05:08:09;;;;;;;;;3.67;2.00;;;;;17.89;68.44;100842.47;5140932;27;45504;-76
2023/07/30 05:10:34;;;;;;;;;4.00;2.67;;;;;17.79;68.55;100832.56;5140673;27;45388;-77
2023/07/30 05:13:00;;;;;;;;;5.67;1.67;;;;;17.84;68.26;100852.75;5122393;27;45272;-76
2023/07/30 05:15:26;;;;;;;;;2.00;1.67;;;;;17.87;68.28;100846.25;5140712;27;45302;-74
2023/07/30 05:17:51;;;;;;;;;2.33;2.33;;;;;17.80;68.42;100835.13;5141072;27;45731;-78
2023/07/30 05:20:16;;;;;;;;;1.67;1.67;;;;;17.88;68.63;100858.72;5121679;27;45797;-77
2023/07/30 05:22:42;;;;;;;;;1.67;1.67;;;;;17.84;68.71;100855.44;5140478;27;45379;-76
2023/07/30 05:25:08;;;;;;;;;2.67;1.67;;;;;17.81;68.70;100857.50;5140473;27;45395;-78
2023/07/30 05:27:35;;;;;;;;;2.67;2.00;;;;;17.88;68.66;100858.72;5121987;27;45535;-77
2023/07/30 05:30:00;;;;;;;;;2.00;1.00;;;;;17.88;68.20;100842.59;5140608;27;45454;-77
2023/07/30 05:32:25;;;;;;;;;4.00;2.00;;;;;17.94;67.81;100839.38;5140275;27;45270;-77
2023/07/30 05:34:51;;;;;;;;;3.00;1.00;;;;;17.99;67.43;100856.00;5140494;27;45380;-78
2023/07/30 05:37:16;;;;;;;;;2.67;2.00;;;;;17.96;67.53;100853.56;5121842;27;45718;-77
2023/07/30 05:39:42;;;;;;;;;2.33;2.33;;;;;18.03;67.46;100852.06;5121634;27;47121;-77
2023/07/30 05:42:07;;;;;;;;;3.33;3.00;;;;;18.22;67.17;100857.63;5140336;27;45303;-77
2023/07/30 05:44:32;;;;;;;;;5.00;4.00;;;;;18.36;66.73;100861.00;5140602;27;45396;-76
2023/07/30 05:46:58;;;;;;;;;2.67;2.00;;;;;18.38;66.09;100850.97;5121807;27;45597;-77
2023/07/30 05:49:24;;;;;;;;;4.00;2.00;;;;;18.47;65.87;100844.78;5140022;27;45686;-76
2023/07/30 05:51:50;;;;;;;;;3.00;1.00;;;;;18.56;65.57;100855.63;5140172;27;45284;-78
2023/07/30 05:54:15;;;;;;;;;4.33;2.00;;;;;18.56;64.90;100852.09;5140023;27;45231;-77
2023/07/30 05:56:40;;;;;;;;;1.00;1.00;;;;;18.49;65.38;100843.69;5121646;27;45675;-77
2023/07/30 05:59:06;;;;;;;;;5.00;1.67;;;;;18.65;65.03;100862.13;5139252;27;60148;-77
2023/07/30 06:01:31;;;;;;;;;3.67;1.00;;;;;18.79;64.43;100860.94;5140387;27;45490;-77
2023/07/30 06:03:56;;;;;;;;;4.67;2.00;;;;;18.97;64.10;100858.47;5121200;27;45499;-77
2023/07/30 06:06:27;;;;;;;;;2.00;2.00;;;;;19.07;63.26;100862.94;5140134;27;45560;-76
2023/07/30 06:08:54;;;;;;;;;1.67;1.67;;;;;19.06;63.25;100873.84;5139449;27;47113;-76
2023/07/30 06:11:19;;;;;;;;;2.33;1.67;;;;;19.02;63.29;100873.28;5139747;27;45306;-76
2023/07/30 06:13:44;;;;;;;;;2.00;2.00;;;;;18.91;62.84;100834.75;5139958;27;45313;-77
2023/07/30 06:16:10;;;;;;;;;2.67;2.00;;;;;19.09;62.89;100858.25;5140028;27;45239;-78
2023/07/30 06:18:35;;;;;;;;;1.00;1.00;;;;;19.27;62.46;100871.09;5139944;27;45416;-77
2023/07/30 06:21:01;;;;;;;;;2.00;2.00;;;;;19.63;61.82;100872.41;5140026;27;45207;-78
2023/07/30 06:23:26;;;;;;;;;4.00;2.00;;;;;19.70;60.82;100862.78;5139740;27;45242;-77
2023/07/30 06:25:51;;;;;;;;;4.67;2.00;;;;;19.79;60.50;100866.47;5139937;27;45441;-77
2023/07/30 06:28:17;;;;;;;;;7.33;4.00;;;;;19.81;60.37;100870.78;5139347;27;45381;-77
2023/07/30 06:30:42;;;;;;;;;3.33;2.00;;;;;19.83;60.18;100884.13;5139566;27;45379;-76
2023/07/30 06:33:08;;;;;;;;;3.00;1.67;;;;;19.77;59.90;100874.72;5139600;27;45434;-77
2023/07/30 06:35:34;;;;;;;;;3.33;2.33;;;;;19.81;59.73;100876.19;5139791;27;45442;-77
2023/07/30 06:37:59;;;;;;;;;3.33;2.00;;;;;19.89;59.67;100887.13;5120765;27;47612;-77
2023/07/30 06:40:25;;;;;;;;;2.00;2.00;;;;;19.88;59.47;100896.19;5139453;27;45408;-77
2023/07/30 06:42:50;;;;;;;;;1.00;1.00;;;;;19.91;59.58;100887.81;5139473;27;45825;-77
2023/07/30 06:45:15;;;;;;;;;2.00;2.00;;;;;20.15;59.09;100891.97;5139586;27;45528;-77
2023/07/30 06:47:41;;;;;;;;;2.00;2.00;;;;;20.27;58.97;100901.66;5139096;27;45487;-78
2023/07/30 06:50:09;;;;;;;;;3.00;3.00;;;;;20.18;58.36;100900.69;5120756;27;45648;-76
2023/07/30 06:52:36;;;;;;;;;3.00;1.33;;;;;20.15;58.68;100900.09;5139354;27;45216;-77
2023/07/30 06:55:02;;;;;;;;;2.00;2.00;;;;;20.10;58.33;100914.03;5139479;27;45219;-77
2023/07/30 06:57:29;;;;;;;;;4.67;2.00;;;;;19.96;58.46;100892.81;5138772;27;45918;-77
2023/07/30 06:59:54;;;;;;;;;2.00;2.00;;;;;20.01;58.51;100894.09;5137821;27;45415;-76
2023/07/30 07:02:19;;;;;;;;;3.67;2.00;;;;;20.10;58.30;100915.88;5138848;27;45987;-77
2023/07/30 07:04:45;;;;;;;;;3.33;2.00;;;;;20.12;58.31;100912.03;5139035;27;45415;-77
2023/07/30 07:07:10;;;;;;;;;3.00;3.00;;;;;20.07;57.93;100908.06;5138578;27;46444;-77
2023/07/30 07:09:36;;;;;;;;;2.00;2.00;;;;;19.66;58.30;100872.13;5120350;27;45376;-78
2023/07/30 07:12:01;;;;;;;;;3.00;2.00;;;;;19.87;58.15;100913.41;5120169;27;45404;-77
2023/07/30 07:14:26;;;;;;;;;3.00;3.00;;;;;19.74;58.57;100910.09;5120097;27;45559;-77
2023/07/30 07:16:54;;;;;;;;;2.67;2.00;;;;;19.79;58.82;100910.50;5138578;27;45261;-77
2023/07/30 07:19:19;;;;;;;;;2.67;2.67;;;;;19.80;58.14;100909.56;5119866;27;45278;-77
2023/07/30 07:21:44;;;;;;;;;5.00;2.00;;;;;19.63;58.48;100894.00;5138602;27;45420;-76
2023/07/30 07:24:10;;;;;;;;;3.00;3.00;;;;;19.38;57.98;100855.69;5120254;27;45244;-78
2023/07/30 07:26:35;;;;;;;;;1.00;1.00;;;;;19.79;57.75;100910.50;5138706;27;45270;-78
2023/07/30 07:29:00;;;;;;;;;2.00;2.00;;;;;19.79;58.22;100917.75;5119839;27;45287;-78
2023/07/30 07:31:27;;;;;;;;;3.00;3.00;;;;;19.56;57.91;100887.47;5138118;27;54734;-77
2023/07/30 07:33:52;;;;;;;;;3.00;1.67;;;;;19.66;57.93;100918.00;5138554;27;45332;-77
2023/07/30 07:36:18;;;;;;;;;4.00;3.33;;;;;19.74;58.16;100915.47;5138162;27;46344;-76
2023/07/30 07:38:43;;;;;;;;;1.00;1.00;;;;;19.74;57.64;100919.03;5138261;27;45370;-76
2023/07/30 07:41:15;;;;;;;;;4.67;3.00;;;;;19.69;57.74;100929.41;5138761;27;45451;-76
2023/07/30 07:43:40;;;;;;;;;4.00;3.00;;;;;19.87;57.47;100932.28;5138263;27;45363;-77
2023/07/30 07:46:13;;;;;;;;;4.67;3.00;;;;;20.02;56.74;100916.56;5119658;27;45595;-75
2023/07/30 07:48:38;;;;;;;;;4.67;3.00;;;;;20.12;56.31;100925.53;5138530;27;45403;-78
2023/07/30 07:51:04;;;;;;;;;5.33;3.00;;;;;20.07;56.49;100940.44;5138252;27;45338;-78
2023/07/30 07:53:29;;;;;;;;;4.00;2.33;;;;;20.03;56.18;100927.19;5138298;27;45541;-77
2023/07/30 07:55:54;;;;;;;;;1.67;1.67;;;;;20.30;56.21;100941.88;5137238;27;62269;-76
2023/07/30 07:58:20;;;;;;;;;4.00;2.00;;;;;20.47;55.29;100929.59;5137985;27;45194;-76
2023/07/30 08:00:45;;;;;;;;;5.33;2.67;;;;;20.54;55.24;100944.22;5138085;27;45306;-76
2023/07/30 08:03:11;;;;;;;;;2.00;2.00;;;;;20.59;55.15;100932.00;5119954;27;45743;-76
2023/07/30 08:05:36;;;;;;;;;2.33;2.33;;;;;20.60;55.57;100960.75;5138108;27;46182;-77
2023/07/30 08:08:01;;;;;;;;;6.00;3.00;;;;;20.46;54.97;100947.66;5137796;27;45745;-79
2023/07/30 08:10:26;;;;;;;;;4.67;2.00;;;;;20.54;55.04;100953.19;5138990;27;45400;-77
2023/07/30 08:12:52;;;;;;;;;2.00;2.00;;;;;20.91;53.72;100953.31;5141219;27;48389;-76
2023/07/30 08:15:17;;;;;;;;;2.67;2.67;;;;;21.11;53.15;100947.91;5122608;27;47703;-77
2023/07/30 08:17:43;;;;;;;;;2.33;2.00;;;;;21.12;52.97;100966.69;5122759;27;45642;-76
2023/07/30 08:20:08;;;;;;;;;2.00;2.00;;;;;21.12;53.21;100946.91;5141417;27;52919;-79
2023/07/30 08:22:33;;;;;;;;;2.00;1.33;;;;;21.03;53.42;100958.56;5141726;27;45550;-78
2023/07/30 08:24:59;;;;;;;;;3.33;3.33;;;;;21.10;53.64;100962.44;5141249;27;45363;-77
2023/07/30 08:27:24;;;;;;;;;3.00;3.00;;;;;21.09;53.42;100961.53;5140795;27;57872;-77
2023/07/30 08:29:49;;;;;;;;;3.67;2.33;;;;;21.11;53.55;100962.28;5141448;27;45351;-77
2023/07/30 08:32:15;;;;;;;;;3.00;2.67;;;;;21.17;53.00;100947.31;5141189;27;47621;-77
2023/07/30 08:34:40;;;;;;;;;1.67;1.67;;;;;21.37;52.36;100964.38;5141483;27;46566;-77
2023/07/30 08:37:05;;;;;;;;;1.67;1.67;;;;;21.23;51.96;100935.06;5122509;27;45413;-77
2023/07/30 08:39:31;;;;;;;;;2.25;2.25;;;;;21.51;51.48;100961.22;5141237;27;45380;-78
2023/07/30 08:41:56;;;;;;;;;3.75;2.75;;;;;21.70;51.66;100968.41;5141067;27;45617;-78
2023/07/30 08:44:21;;;;;;;;;3.25;1.75;;;;;21.67;50.50;100928.94;5141038;27;46023;-78
2023/07/30 08:46:47;;;;;;;;;2.25;2.25;;;;;21.98;50.48;100963.84;5122565;27;45444;-77
2023/07/30 08:49:12;;;;;;;;;1.75;1.75;;;;;22.03;51.09;100951.56;5122797;27;45365;-75
2023/07/30 08:51:42;;;;;;;;;1.75;1.75;;;;;22.12;50.16;100922.72;5141414;27;45524;-77
2023/07/30 08:54:09;;;;;;;;;2.50;2.50;;;;;22.46;50.12;100963.59;5140972;27;46178;-79
2023/07/30 08:56:35;;;;;;;;;0.75;0.75;;;;;22.43;50.21;100960.34;5141126;27;45315;-78
2023/07/30 08:59:03;;;;;;;;;3.25;3.00;;;;;22.32;49.42;100948.69;5140915;27;45392;-76
2023/07/30 09:01:32;;;;;;;;;3.75;2.75;;;;;22.25;49.28;100934.06;5141202;27;45571;-77
2023/07/30 09:04:02;;;;;;;;;3.00;3.00;;;;;22.55;49.14;100946.41;5140549;27;45462;-76
2023/07/30 09:06:27;;;;;;;;;1.25;1.25;;;;;22.48;47.79;100917.34;5140730;27;45479;-78
2023/07/30 09:08:53;;;;;;;;;2.00;2.00;;;;;22.61;48.27;100942.22;5140828;27;45529;-77
2023/07/30 09:11:20;;;;;;;;;3.00;1.75;;;;;22.78;48.29;100940.47;5140991;27;45475;-77
2023/07/30 09:13:45;;;;;;;;;3.00;3.00;;;;;23.04;48.23;100941.41;5140681;27;45485;-78
2023/07/30 09:16:14;;;;;;;;;4.00;2.00;;;;;23.02;47.54;100948.00;5122220;27;45290;-77
2023/07/30 09:18:46;;;;;;;;;3.50;1.50;;;;;23.10;47.24;100945.38;5140637;27;45432;-77
2023/07/30 09:21:12;;;;;;;;;1.75;1.75;;;;;23.17;47.32;100938.28;5141360;27;45274;-77
2023/07/30 09:23:42;;;;;;;;;3.75;2.00;;;;;23.21;46.41;100945.09;5139679;27;45671;-76
2023/07/30 09:26:08;;;;;;;;;1.75;1.75;;;;;23.27;46.61;100947.16;5140507;27;45315;-77
2023/07/30 09:28:34;;;;;;;;;2.50;2.50;;;;;23.23;46.14;100930.38;5140625;27;45245;-78
2023/07/30 09:31:06;;;;;;;;;1.75;1.75;;;;;23.38;46.63;100933.34;5121990;27;45514;-77
2023/07/30 09:33:32;;;;;;;;;2.00;2.00;;;;;23.38;46.71;100938.75;5140488;27;46117;-76
2023/07/30 09:35:57;;;;;;;;;3.00;1.50;;;;;23.38;45.77;100938.75;5140270;27;45333;-79
2023/07/30 09:38:23;;;;;;;;;4.25;1.75;;;;;23.55;46.01;100939.69;5140233;27;45518;-78
2023/07/30 09:40:49;;;;;;;;;3.75;2.25;;;;;23.75;45.64;100946.63;5140750;27;45526;-78
2023/07/30 09:43:15;;;;;;;;;3.25;3.25;;;;;23.79;45.13;100941.72;5121675;27;45479;-78
2023/07/30 09:45:40;;;;;;;;;2.00;2.00;;;;;23.75;44.74;100932.22;5140369;27;45388;-78
2023/07/30 09:48:06;;;;;;;;;2.00;2.00;;;;;23.80;45.15;100960.56;5140211;27;45448;-77
2023/07/30 09:50:33;;;;;;;;;2.25;2.25;;;;;23.68;44.55;100951.00;5140530;27;45561;-79
2023/07/30 09:53:01;;;;;;;;;2.00;1.75;;;;;23.66;44.60;100960.31;5139988;27;46070;-78
2023/07/30 09:55:26;;;;;;;;;1.00;1.00;;;;;23.53;44.89;100937.16;5140081;27;45465;-79
2023/07/30 09:57:52;;;;;;;;;2.00;1.00;;;;;23.77;43.76;100930.19;5140167;27;45393;-79
2023/07/30 10:00:17;;;;;;;;;3.00;3.00;;;;;23.97;44.34;100942.50;5122436;27;45685;-76
2023/07/30 10:02:46;;;;;;;;;2.00;2.00;;;;;24.02;43.29;100959.13;5140689;27;45366;-79
2023/07/30 10:05:16;;;;;;;;;3.00;1.00;;;;;23.90;44.44;100957.72;5121609;27;45367;-79
2023/07/30 10:07:49;;;;;;;;;3.50;2.25;;;;;23.79;43.95;100963.44;5140118;27;45320;-79
2023/07/30 10:10:14;;;;;;;;;3.50;3.25;;;;;23.71;44.04;100960.72;5140323;27;45399;-77
2023/07/30 10:12:41;;;;;;;;;1.25;1.25;;;;;23.70;43.71;100972.56;5120822;27;48367;-79
2023/07/30 10:15:08;;;;;;;;;2.80;1.20;;;;;23.59;43.53;100979.16;5139545;27;45406;-78
2023/07/30 10:17:33;;;;;;;;;1.75;1.75;;;;;23.39;44.28;100954.03;5139868;27;45265;-77
2023/07/30 10:20:23;;;;;;;;;2.00;2.00;;;;;23.75;43.89;100972.94;5121335;27;45560;-77
2023/07/30 10:22:54;;;;;;;;;2.75;2.75;;;;;23.73;43.18;100947.81;5139673;27;45978;-77
2023/07/30 10:25:30;;;;;;;;;5.50;2.00;;;;;23.87;42.89;100970.78;5139372;27;45366;-78
2023/07/30 10:27:56;;;;;;;;;4.50;2.00;;;;;23.73;42.65;100953.25;5139540;27;45361;-78
2023/07/30 10:30:22;;;;;;;;;4.00;3.50;;;;;23.82;42.48;100976.69;5139471;27;45276;-77
2023/07/30 10:32:57;;;;;;;;;5.00;2.25;;;;;24.05;42.70;100985.13;5139303;27;46092;-78
2023/07/30 10:35:43;;;;;;;;;3.50;2.00;;;;;24.24;41.91;100986.75;5138045;27;45514;-78
2023/07/30 10:38:29;;;;;;;;;3.75;2.75;;;;;24.44;41.54;100980.00;5139523;27;45440;-78
2023/07/30 10:41:05;;;;;;;;;2.00;2.00;;;;;24.68;41.53;100985.50;5139207;27;45418;-78
2023/07/30 10:43:39;;;;;;;;;2.00;2.00;;;;;24.93;41.25;100985.53;5139185;27;46411;-77
2023/07/30 10:46:05;;;;;;;;;3.20;3.20;;;;;24.74;40.94;100955.91;5139139;27;45453;-77
2023/07/30 10:48:33;;;;;;;;;3.00;3.00;;;;;24.68;40.55;100976.50;5139289;27;45343;-77
2023/07/30 10:51:00;;;;;;;;;4.00;4.00;;;;;24.60;40.66;100979.19;5139287;27;45597;-79
2023/07/30 10:53:26;;;;;;;;;2.00;2.00;;;;;24.37;40.96;100979.84;5138830;27;46107;-78
2023/07/30 10:55:52;;;;;;;;;2.00;2.00;;;;;24.19;41.26;100964.63;5139139;27;45234;-77
2023/07/30 10:58:18;;;;;;;;;1.40;1.40;;;;;24.33;40.92;100983.88;5139361;27;45365;-78
2023/07/30 11:00:43;;;;;;;;;3.25;3.25;;;;;24.22;41.34;100953.41;5120312;27;45305;-77
2023/07/30 11:03:09;;;;;;;;;3.75;2.50;;;;;24.29;40.57;100970.78;5120324;27;48077;-78
2023/07/30 11:05:37;;;;;;;;;2.75;2.75;;;;;24.19;40.70;100970.06;5138667;27;45475;-78
2023/07/30 11:08:03;;;;;;;;;2.50;2.00;;;;;24.06;41.62;100970.53;5138664;27;45513;-77
2023/07/30 11:10:28;;;;;;;;;3.00;2.00;;;;;24.01;41.00;100973.75;5139035;27;45495;-77
2023/07/30 11:12:53;;;;;;;;;1.00;1.00;;;;;23.67;41.20;100921.28;5137916;27;61693;-78
2023/07/30 11:15:19;;;;;;;;;2.00;1.25;;;;;24.23;40.09;100964.16;5139127;27;45284;-78
2023/07/30 11:17:45;;;;;;;;;1.75;1.75;;;;;24.83;39.46;100984.84;5138866;27;45276;-77
2023/07/30 11:20:26;;;;;;;;;1.00;0.75;;;;;25.03;39.67;100990.84;5120342;27;45289;-76